createdAt,value
2018-03-02T00:02:16.252Z,21.40
2018-03-02T00:04:43.793Z,22.60
2018-03-02T00:07:12.158Z,22.45
2018-03-02T00:09:39.808Z,22.45
2018-03-02T00:12:07.352Z,21.40
2018-03-02T00:14:34.955Z,22.30
2018-03-02T00:17:03.266Z,22.42
2018-03-02T00:19:30.829Z,21.70
2018-03-02T00:21:58.379Z,22.50
2018-03-02T00:24:26.714Z,22.90
2018-03-02T00:26:54.252Z,21.75
2018-03-02T00:29:21.798Z,22.60
2018-03-02T00:31:50.122Z,22.60
2018-03-02T00:34:17.725Z,23.00
2018-03-02T00:36:45.290Z,22.87
2018-03-02T00:39:12.811Z,23.83
2018-03-02T00:41:40.346Z,23.00
2018-03-02T00:44:08.650Z,22.40
2018-03-02T00:46:36.340Z,25.00
2018-03-02T00:49:03.882Z,22.80
2018-03-02T00:51:31.407Z,22.52
2018-03-02T00:53:58.996Z,23.02
2018-03-02T00:56:27.317Z,23.60
2018-03-02T00:58:54.876Z,22.92
2018-03-02T01:01:22.429Z,24.15
2018-03-02T01:03:49.966Z,24.52
2018-03-02T01:06:18.348Z,24.20
2018-03-02T01:08:46.666Z,22.90
2018-03-02T01:11:14.325Z,23.42
2018-03-02T01:13:41.866Z,23.77
2018-03-02T01:16:10.174Z,23.45
2018-03-02T01:18:37.720Z,23.62
2018-03-02T01:21:06.045Z,24.37
2018-03-02T01:23:33.582Z,23.17
2018-03-02T01:26:01.132Z,24.75
2018-03-02T01:28:29.477Z,24.15
2018-03-02T01:30:57.944Z,24.75
2018-03-02T01:33:25.547Z,24.10
2018-03-02T01:35:53.091Z,24.35
2018-03-02T01:38:20.764Z,23.90
2018-03-02T01:40:48.345Z,24.25
2018-03-02T01:43:15.878Z,25.70
2018-03-02T01:45:43.457Z,24.58
2018-03-02T01:48:11.032Z,25.77
2018-03-02T01:50:38.589Z,24.35
2018-03-02T01:53:06.221Z,24.77
2018-03-02T01:55:33.866Z,25.40
2018-03-02T01:58:02.273Z,24.87
2018-03-02T02:00:29.818Z,23.85
2018-03-02T02:02:58.128Z,23.98
2018-03-02T02:05:25.688Z,24.85
2018-03-02T02:07:53.232Z,23.75
2018-03-02T02:10:20.800Z,26.12
2018-03-02T02:12:49.114Z,24.95
2018-03-02T02:15:16.659Z,24.02
2018-03-02T02:17:44.192Z,23.25
2018-03-02T02:20:11.735Z,24.73
2018-03-02T02:22:39.449Z,24.87
2018-03-02T02:25:07.034Z,25.15
2018-03-02T02:27:34.573Z,25.55
2018-03-02T02:30:02.874Z,25.37
2018-03-02T02:32:30.425Z,25.17
2018-03-02T02:34:58.898Z,24.80
2018-03-02T02:37:27.206Z,25.52
2018-03-02T02:39:54.875Z,26.23
2018-03-02T02:42:22.759Z,23.77
2018-03-02T02:44:50.359Z,25.98
2018-03-02T02:47:17.922Z,26.90
2018-03-02T02:49:45.454Z,26.30
2018-03-02T02:52:13.070Z,25.58
2018-03-02T02:54:40.590Z,25.65
2018-03-02T02:57:08.144Z,26.60
2018-03-02T02:59:35.705Z,25.77
2018-03-02T03:02:03.239Z,24.33
2018-03-02T03:04:31.678Z,25.50
2018-03-02T03:06:59.226Z,25.85
2018-03-02T03:09:26.751Z,25.48
2018-03-02T03:11:54.317Z,26.98
2018-03-02T03:14:21.869Z,25.30
2018-03-02T03:16:49.428Z,21.60
2018-03-02T03:19:16.978Z,25.67
2018-03-02T03:21:44.547Z,26.27
2018-03-02T03:24:12.107Z,24.92
2018-03-02T03:26:39.751Z,26.25
2018-03-02T03:29:07.357Z,26.85
2018-03-02T03:31:34.905Z,25.08
2018-03-02T03:34:02.454Z,27.75
2018-03-02T03:36:30.016Z,23.85
2018-03-02T03:38:57.580Z,26.42
2018-03-02T03:41:25.134Z,26.48
2018-03-02T03:43:52.674Z,24.85
2018-03-02T03:46:20.238Z,25.85
2018-03-02T03:48:47.814Z,27.37
2018-03-02T03:51:16.201Z,26.73
2018-03-02T03:53:43.711Z,28.05
2018-03-02T03:56:11.252Z,26.00
2018-03-02T03:58:38.802Z,27.00
2018-03-02T04:01:07.125Z,26.92
2018-03-02T04:03:34.754Z,26.87
2018-03-02T04:06:03.056Z,24.92
2018-03-02T04:08:30.592Z,27.23
2018-03-02T04:10:58.908Z,26.27
2018-03-02T04:13:26.463Z,26.20
2018-03-02T04:15:53.985Z,25.58
2018-03-02T04:18:21.565Z,27.42
2018-03-02T04:20:49.888Z,25.85
2018-03-02T04:23:17.447Z,26.35
2018-03-02T04:25:45.023Z,27.33
2018-03-02T04:28:12.582Z,26.70
2018-03-02T04:30:40.138Z,27.92
2018-03-02T04:33:07.669Z,27.75
2018-03-02T04:35:35.476Z,26.00
2018-03-02T04:38:03.341Z,26.67
2018-03-02T04:40:31.048Z,25.42
2018-03-02T04:42:58.597Z,26.87
2018-03-02T04:45:26.142Z,27.15
2018-03-02T04:47:53.754Z,26.17
2018-03-02T04:50:21.330Z,24.23
2018-03-02T04:52:48.857Z,27.95
2018-03-02T04:55:16.391Z,26.85
2018-03-02T04:57:44.708Z,27.50
2018-03-02T05:00:12.333Z,27.45
2018-03-02T05:02:40.683Z,28.70
2018-03-02T05:05:08.309Z,25.80
2018-03-02T05:07:35.848Z,27.55
2018-03-02T05:10:04.154Z,28.65
2018-03-02T05:12:31.677Z,28.60
2018-03-02T05:14:59.229Z,27.50
2018-03-02T05:17:26.789Z,26.95
2018-03-02T05:19:54.321Z,29.23
2018-03-02T05:22:21.861Z,27.52
2018-03-02T05:24:50.157Z,24.92
2018-03-02T05:27:17.850Z,25.00
2018-03-02T05:29:45.400Z,28.00
2018-03-02T05:32:12.940Z,24.73
2018-03-02T05:34:41.231Z,27.92
2018-03-02T05:37:09.531Z,25.92
2018-03-02T05:39:37.124Z,26.62
2018-03-02T05:42:04.663Z,27.33
2018-03-02T05:44:32.209Z,27.77
2018-03-02T05:47:00.615Z,26.95
2018-03-02T05:49:28.144Z,27.62
2018-03-02T05:51:56.708Z,27.80
2018-03-02T05:54:24.255Z,28.30
2018-03-02T05:56:51.796Z,28.08
2018-03-02T05:59:19.338Z,26.12
2018-03-02T06:01:47.652Z,27.42
2018-03-02T06:04:15.225Z,27.30
2018-03-02T06:06:42.766Z,26.33
2018-03-02T06:09:10.314Z,27.77
2018-03-02T06:11:38.650Z,25.88
2018-03-02T06:14:06.194Z,27.33
2018-03-02T06:16:33.741Z,26.17
2018-03-02T06:19:01.292Z,27.00
2018-03-02T06:21:29.608Z,26.25
2018-03-02T06:23:57.152Z,27.05
2018-03-02T06:26:24.679Z,24.00
2018-03-02T06:28:52.234Z,25.62
2018-03-02T06:31:20.542Z,25.65
2018-03-02T06:33:48.083Z,26.30
2018-03-02T06:36:15.628Z,33.97
2018-03-02T06:38:43.176Z,29.87
2018-03-02T06:41:10.735Z,27.02
2018-03-02T06:43:38.284Z,27.50
2018-03-02T06:46:06.590Z,26.48
2018-03-02T06:48:34.157Z,25.58
2018-03-02T06:51:01.692Z,24.23
2018-03-02T06:53:30.028Z,26.20
2018-03-02T06:55:57.574Z,26.65
2018-03-02T06:58:25.106Z,26.95
2018-03-02T07:00:53.436Z,26.80
2018-03-02T07:03:20.990Z,26.50
2018-03-02T07:05:48.540Z,24.75
2018-03-02T07:08:16.070Z,26.15
2018-03-02T07:10:43.611Z,26.10
2018-03-02T07:13:11.174Z,23.30
2018-03-02T07:15:39.485Z,23.50
2018-03-02T07:18:07.034Z,25.98
2018-03-02T07:20:34.571Z,25.12
2018-03-02T07:23:02.134Z,26.35
2018-03-02T07:25:29.665Z,25.88
2018-03-02T07:27:57.222Z,23.05
2018-03-02T07:30:25.667Z,26.27
2018-03-02T07:32:53.227Z,25.67
2018-03-02T07:35:20.760Z,26.70
2018-03-02T07:37:48.300Z,26.62
2018-03-02T07:40:16.674Z,27.00
2018-03-02T07:42:44.254Z,26.23
2018-03-02T07:45:12.561Z,26.70
2018-03-02T07:47:40.107Z,25.62
2018-03-02T07:50:08.433Z,27.05
2018-03-02T07:52:36.004Z,26.42
2018-03-02T07:55:03.564Z,26.48
2018-03-02T07:57:31.126Z,27.87
2018-03-02T07:59:58.646Z,26.17
2018-03-02T08:02:26.957Z,28.10
2018-03-02T08:04:54.513Z,24.35
2018-03-02T08:07:22.080Z,26.77
2018-03-02T08:09:49.619Z,27.17
2018-03-02T08:12:17.936Z,27.15
2018-03-02T08:14:45.500Z,26.65
2018-03-02T08:17:13.044Z,26.23
2018-03-02T08:19:41.385Z,27.08
2018-03-02T08:22:08.911Z,26.75
2018-03-02T08:24:36.509Z,27.58
2018-03-02T08:27:04.056Z,26.75
2018-03-02T08:29:31.590Z,24.40
2018-03-02T08:31:59.938Z,26.80
2018-03-02T08:34:27.487Z,26.55
2018-03-02T08:36:55.795Z,28.20
2018-03-02T08:39:23.346Z,27.70
2018-03-02T08:41:50.880Z,25.90
2018-03-02T08:44:18.453Z,27.73
2018-03-02T08:46:45.994Z,27.15
2018-03-02T08:49:13.541Z,27.33
2018-03-02T08:51:41.860Z,27.80
2018-03-02T08:54:09.400Z,27.17
2018-03-02T08:56:37.027Z,26.95
2018-03-02T08:59:04.571Z,27.52
2018-03-02T09:01:32.137Z,28.27
2018-03-02T09:03:59.687Z,26.75
2018-03-02T09:06:27.223Z,29.10
2018-03-02T09:08:55.546Z,26.98
2018-03-02T09:11:23.093Z,28.48
2018-03-02T09:13:50.632Z,28.52
2018-03-02T09:16:18.930Z,29.23
2018-03-02T09:18:46.493Z,27.60
2018-03-02T09:21:14.073Z,28.10
2018-03-02T09:23:41.615Z,27.15
2018-03-02T09:26:09.920Z,28.25
2018-03-02T09:28:37.461Z,27.73
2018-03-02T09:31:05.812Z,28.17
2018-03-02T09:33:33.405Z,27.70
2018-03-02T09:36:01.718Z,27.95
2018-03-02T09:38:29.278Z,28.58
2018-03-02T09:40:57.060Z,27.27
2018-03-02T09:43:24.611Z,27.08
2018-03-02T09:45:52.213Z,28.35
2018-03-02T09:48:19.754Z,28.15
2018-03-02T09:50:47.298Z,27.55
2018-03-02T09:53:14.828Z,29.17
2018-03-02T09:55:42.383Z,30.73
2018-03-02T09:58:11.027Z,29.00
2018-03-02T10:00:38.580Z,29.08
2018-03-02T10:03:06.906Z,27.35
2018-03-02T10:05:34.452Z,29.37
2018-03-02T10:08:02.030Z,29.10
2018-03-02T10:10:29.593Z,29.08
2018-03-02T10:12:57.130Z,28.50
2018-03-02T10:15:24.691Z,29.75
2018-03-02T10:17:53.004Z,28.50
2018-03-02T10:20:20.539Z,29.52
2018-03-02T10:22:48.884Z,29.52
2018-03-02T10:25:16.489Z,28.85
2018-03-02T10:27:44.035Z,28.35
2018-03-02T10:30:11.592Z,30.23
2018-03-02T10:32:39.202Z,31.05
2018-03-02T10:35:06.773Z,31.10
2018-03-02T10:37:34.350Z,29.73
2018-03-02T10:40:01.882Z,30.95
2018-03-02T10:42:29.443Z,30.37
2018-03-02T10:44:57.850Z,28.87
2018-03-02T10:47:25.414Z,30.35
2018-03-02T10:49:52.950Z,28.95
2018-03-02T10:52:21.258Z,29.08
2018-03-02T10:54:48.852Z,31.37
2018-03-02T10:57:16.447Z,30.23
2018-03-02T10:59:44.026Z,30.65
2018-03-02T11:02:17.038Z,30.02
2018-03-02T11:04:47.508Z,31.12
2018-03-02T11:07:15.824Z,29.52
2018-03-02T11:09:43.380Z,31.45
2018-03-02T11:12:10.923Z,29.17
2018-03-02T11:14:38.462Z,30.17
2018-03-02T11:17:06.032Z,32.17
2018-03-02T11:19:33.694Z,30.90
2018-03-02T11:22:01.244Z,31.15
2018-03-02T11:24:28.793Z,31.20
2018-03-02T11:26:57.120Z,31.08
2018-03-02T11:29:24.678Z,32.47
2018-03-02T11:31:52.240Z,31.67
2018-03-02T11:34:19.799Z,31.83
2018-03-02T11:36:47.335Z,30.88
2018-03-02T11:39:15.658Z,30.65
2018-03-02T11:41:43.219Z,31.17
2018-03-02T11:44:10.779Z,30.77
2018-03-02T11:46:38.340Z,31.80
2018-03-02T11:49:05.893Z,31.48
2018-03-02T11:51:34.203Z,29.90
2018-03-02T11:54:01.844Z,29.83
2018-03-02T11:56:30.198Z,31.33
2018-03-02T11:58:57.812Z,30.52
2018-03-02T12:01:26.081Z,29.50
2018-03-02T12:03:54.396Z,31.48
2018-03-02T12:06:21.951Z,30.17
2018-03-02T12:08:49.486Z,30.92
2018-03-02T12:11:17.809Z,31.83
2018-03-02T12:13:45.376Z,31.23
2018-03-02T12:16:13.658Z,30.33
2018-03-02T12:18:41.307Z,32.30
2018-03-02T12:21:08.872Z,31.20
2018-03-02T12:23:36.415Z,31.85
2018-03-02T12:26:04.811Z,31.77
2018-03-02T12:28:33.156Z,33.33
2018-03-02T12:31:00.721Z,32.40
2018-03-02T12:33:28.270Z,30.95
2018-03-02T12:35:55.836Z,32.58
2018-03-02T12:38:23.392Z,32.47
2018-03-02T12:40:51.008Z,32.15
2018-03-02T12:43:19.339Z,31.85
2018-03-02T12:45:46.916Z,32.83
2018-03-02T12:48:14.473Z,33.25
2018-03-02T12:50:42.083Z,32.75
2018-03-02T12:53:10.386Z,34.03
2018-03-02T12:55:37.963Z,32.95
2018-03-02T12:58:05.531Z,32.20
2018-03-02T13:00:33.241Z,33.88
2018-03-02T13:03:00.753Z,34.58
2018-03-02T13:05:28.279Z,33.63
2018-03-02T13:07:55.898Z,33.50
2018-03-02T13:10:23.438Z,33.90
2018-03-02T13:12:51.757Z,32.92
2018-03-02T13:15:19.308Z,34.22
2018-03-02T13:17:46.908Z,34.55
2018-03-02T13:20:14.489Z,36.30
2018-03-02T13:22:42.746Z,34.08
2018-03-02T13:25:11.360Z,33.67
2018-03-02T13:27:50.764Z,36.13
2018-03-02T13:30:18.336Z,34.55
2018-03-02T13:33:06.722Z,35.58
2018-03-02T13:35:35.020Z,35.65
2018-03-02T13:38:02.603Z,36.38
2018-03-02T13:40:42.094Z,36.00
2018-03-02T13:43:09.636Z,36.45
2018-03-02T13:45:37.197Z,37.15
2018-03-02T13:48:34.501Z,38.30
2018-03-02T13:51:02.826Z,37.55
2018-03-02T13:53:30.384Z,38.83
2018-03-02T13:55:57.943Z,38.85
2018-03-02T13:58:25.482Z,40.60
2018-03-02T14:00:53.158Z,39.20
2018-03-02T14:03:32.512Z,40.70
2018-03-02T14:06:00.095Z,40.65
2018-03-02T14:08:27.646Z,39.95
2018-03-02T14:10:55.192Z,41.67
2018-03-02T14:13:22.739Z,40.25
2018-03-02T14:15:51.049Z,39.35
2018-03-02T14:18:18.577Z,40.53
2018-03-02T14:20:46.879Z,38.95
2018-03-02T14:23:14.467Z,42.28
2018-03-02T14:25:42.006Z,40.90
2018-03-02T14:28:09.557Z,40.15
2018-03-02T14:30:37.880Z,40.33
2018-03-02T14:33:05.422Z,40.92
2018-03-02T14:35:32.984Z,41.45
2018-03-02T14:38:00.580Z,42.62
2018-03-02T14:40:28.334Z,40.78
2018-03-02T14:42:55.871Z,40.03
2018-03-02T14:45:24.191Z,42.22
2018-03-02T14:47:51.763Z,42.00
2018-03-02T14:50:19.335Z,42.10
2018-03-02T14:52:46.979Z,42.67
2018-03-02T14:55:14.517Z,41.60
2018-03-02T14:57:43.328Z,43.33
2018-03-02T15:00:10.974Z,43.60
2018-03-02T15:02:38.535Z,42.42
2018-03-02T15:05:06.100Z,44.55
2018-03-02T15:07:33.685Z,42.55
2018-03-02T15:10:01.247Z,43.38
2018-03-02T15:12:29.969Z,43.85
2018-03-02T15:14:57.527Z,43.17
2018-03-02T15:17:25.103Z,42.28
2018-03-02T15:19:52.670Z,41.53
2018-03-02T15:22:20.233Z,43.00
2018-03-02T15:24:47.825Z,43.03
2018-03-02T15:27:15.377Z,42.22
2018-03-02T15:29:42.927Z,42.60
2018-03-02T15:32:10.508Z,43.33
2018-03-02T15:34:38.069Z,41.37
2018-03-02T15:37:05.928Z,42.83
2018-03-02T15:39:33.501Z,40.90
2018-03-02T15:42:01.774Z,43.33
2018-03-02T15:44:29.350Z,44.15
2018-03-02T15:46:56.923Z,43.67
2018-03-02T15:49:24.500Z,42.70
2018-03-02T15:51:52.065Z,83.82
2018-03-02T15:54:19.663Z,65.60
2018-03-02T15:56:47.214Z,50.17
2018-03-02T15:59:14.751Z,46.00
2018-03-02T16:01:42.322Z,41.33
2018-03-02T16:04:09.862Z,44.67
2018-03-02T16:06:37.479Z,44.72
2018-03-02T16:09:05.023Z,44.53
2018-03-02T16:11:32.571Z,43.17
2018-03-02T16:14:00.165Z,44.47
2018-03-02T16:16:27.711Z,44.33
2018-03-02T16:18:55.275Z,43.15
2018-03-02T16:21:22.851Z,46.50
2018-03-02T16:23:51.163Z,44.85
2018-03-02T16:26:18.756Z,45.33
2018-03-02T16:28:47.090Z,45.35
2018-03-02T16:31:14.644Z,43.40
2018-03-02T16:33:42.196Z,45.03
2018-03-02T16:36:09.753Z,44.72
2018-03-02T16:38:37.381Z,48.50
2018-03-02T16:41:04.947Z,45.17
2018-03-02T16:43:32.577Z,45.03
2018-03-02T16:46:00.139Z,46.78
2018-03-02T16:48:27.737Z,46.65
2018-03-02T16:50:55.329Z,105.10
2018-03-02T16:53:23.662Z,54.58
2018-03-02T16:55:51.975Z,53.92
2018-03-02T16:58:19.528Z,45.05
2018-03-02T17:00:48.609Z,47.33
2018-03-02T17:03:16.548Z,52.60
2018-03-02T17:05:44.273Z,46.53
2018-03-02T17:08:11.826Z,49.05
2018-03-02T17:10:39.404Z,47.58
2018-03-02T17:13:06.958Z,47.50
2018-03-02T17:15:34.550Z,47.92
2018-03-02T17:18:02.113Z,55.95
2018-03-02T17:20:29.642Z,50.95
2018-03-02T17:22:57.227Z,51.72
2018-03-02T17:25:24.786Z,51.47
2018-03-02T17:27:52.368Z,50.47
2018-03-02T17:30:19.927Z,52.17
2018-03-02T17:32:47.494Z,52.50
2018-03-02T17:35:15.076Z,47.75
2018-03-02T17:37:42.631Z,48.65
2018-03-02T17:40:11.716Z,54.60
2018-03-02T17:42:39.299Z,55.33
2018-03-02T17:45:06.879Z,49.38
2018-03-02T17:47:35.189Z,49.58
2018-03-02T17:50:02.763Z,56.97
2018-03-02T17:52:30.339Z,48.30
2018-03-02T17:54:57.894Z,48.45
2018-03-02T17:57:25.496Z,50.00
2018-03-02T17:59:53.052Z,50.97
2018-03-02T18:02:20.633Z,50.15
2018-03-02T18:04:48.208Z,49.42
2018-03-02T18:07:15.767Z,49.97
2018-03-02T18:09:43.330Z,49.45
2018-03-02T18:12:10.921Z,48.78
2018-03-02T18:14:39.247Z,52.53
2018-03-02T18:17:06.847Z,48.95
2018-03-02T18:19:34.410Z,49.95
2018-03-02T18:22:02.024Z,52.38
2018-03-02T18:24:29.591Z,50.78
2018-03-02T18:26:57.166Z,50.33
2018-03-02T18:29:24.749Z,49.08
2018-03-02T18:31:52.299Z,50.15
2018-03-02T18:34:19.840Z,48.38
2018-03-02T18:36:48.223Z,51.95
2018-03-02T18:39:16.550Z,51.70
2018-03-02T18:41:44.140Z,50.78
2018-03-02T18:44:11.705Z,50.95
2018-03-02T18:46:39.264Z,48.10
2018-03-02T18:49:06.849Z,50.35
2018-03-02T18:51:34.417Z,55.60
2018-03-02T18:54:02.052Z,51.55
2018-03-02T18:56:29.613Z,50.58
2018-03-02T18:58:57.187Z,51.60
2018-03-02T19:01:24.779Z,53.45
2018-03-02T19:03:52.340Z,51.13
2018-03-02T19:06:19.968Z,52.25
2018-03-02T19:08:47.582Z,52.33
2018-03-02T19:11:15.128Z,55.03
2018-03-02T19:13:42.767Z,52.58
2018-03-02T19:16:10.405Z,50.78
2018-03-02T19:18:39.068Z,50.60
2018-03-02T19:21:06.724Z,51.70
2018-03-02T19:23:34.388Z,52.60
2018-03-02T19:26:02.035Z,52.55
2018-03-02T19:28:29.705Z,51.53
2018-03-02T19:30:57.446Z,54.08
2018-03-02T19:33:25.274Z,54.90
2018-03-02T19:35:52.934Z,52.10
2018-03-02T19:38:20.576Z,53.10
2018-03-02T19:40:48.264Z,54.15
2018-03-02T19:43:17.442Z,78.03
2018-03-02T19:45:45.918Z,311.60
2018-03-02T19:48:13.612Z,70.22
2018-03-02T19:50:41.218Z,68.53
2018-03-02T19:53:08.960Z,53.03
2018-03-02T19:55:36.648Z,52.50
2018-03-02T19:58:04.312Z,53.35
2018-03-02T20:00:32.084Z,53.87
2018-03-02T20:03:00.520Z,52.60
2018-03-02T20:05:28.296Z,54.35
2018-03-02T20:07:56.135Z,55.00
2018-03-02T20:10:24.582Z,52.30
2018-03-02T20:12:52.282Z,57.62
2018-03-02T20:15:20.706Z,52.08
2018-03-02T20:17:48.424Z,54.55
2018-03-02T20:20:16.955Z,53.13
2018-03-02T20:22:44.630Z,54.08
2018-03-02T20:25:12.249Z,53.72
2018-03-02T20:27:39.920Z,53.47
2018-03-02T20:30:07.598Z,54.42
2018-03-02T20:32:36.326Z,55.50
2018-03-02T20:35:04.021Z,54.13
2018-03-02T20:37:31.651Z,55.28
2018-03-02T20:39:59.294Z,55.47
2018-03-02T20:42:28.412Z,56.08
2018-03-02T20:44:56.145Z,54.35
2018-03-02T20:47:23.759Z,52.62
2018-03-02T20:49:51.389Z,54.15
2018-03-02T20:52:19.733Z,54.88
2018-03-02T20:54:47.448Z,56.97
2018-03-02T20:57:15.811Z,54.78
2018-03-02T20:59:43.393Z,57.78
2018-03-02T21:02:11.859Z,59.05
2018-03-02T21:04:39.578Z,58.00
2018-03-02T21:07:07.150Z,82.45
2018-03-02T21:09:34.822Z,65.47
2018-03-02T21:12:02.517Z,53.15
2018-03-02T21:14:30.098Z,56.80
2018-03-02T21:16:57.688Z,56.75
2018-03-02T21:19:26.046Z,55.65
2018-03-02T21:21:53.698Z,55.50
2018-03-02T21:24:21.361Z,54.90
2018-03-02T21:26:48.941Z,58.15
2018-03-02T21:29:16.522Z,56.20
2018-03-02T21:31:44.127Z,54.38
2018-03-02T21:34:11.702Z,57.03
2018-03-02T21:36:39.271Z,56.85
2018-03-02T21:39:06.828Z,54.47
2018-03-02T21:41:34.404Z,55.90
2018-03-02T21:44:01.963Z,58.65
2018-03-02T21:46:29.559Z,56.15
2018-03-02T21:48:57.192Z,56.60
2018-03-02T21:51:24.745Z,55.28
2018-03-02T21:53:53.068Z,58.33
2018-03-02T21:56:20.621Z,58.03
2018-03-02T21:58:48.223Z,60.22
2018-03-02T22:01:15.784Z,56.63
2018-03-02T22:03:43.341Z,58.00
2018-03-02T22:06:12.566Z,57.30
2018-03-02T22:08:40.203Z,56.95
2018-03-02T22:11:07.783Z,57.30
2018-03-02T22:13:35.336Z,61.45
2018-03-02T22:16:03.000Z,56.83
2018-03-02T22:18:30.559Z,60.03
2018-03-02T22:20:58.143Z,56.78
2018-03-02T22:23:25.752Z,57.50
2018-03-02T22:25:54.069Z,72.00
2018-03-02T22:28:21.626Z,57.55
2018-03-02T22:30:49.228Z,58.83
2018-03-02T22:33:16.789Z,60.53
2018-03-02T22:35:44.357Z,58.83
2018-03-02T22:38:11.907Z,60.05
2018-03-02T22:40:39.603Z,59.67
2018-03-02T22:43:07.181Z,58.15
2018-03-02T22:45:35.549Z,57.88
2018-03-02T22:48:03.130Z,58.65
2018-03-02T22:50:30.711Z,57.60
2018-03-02T22:52:59.026Z,58.05
2018-03-02T22:55:26.610Z,57.72
2018-03-02T22:57:54.289Z,59.08
2018-03-02T23:00:21.923Z,59.33
2018-03-02T23:02:49.464Z,56.45
2018-03-02T23:05:17.809Z,56.30
2018-03-02T23:07:46.134Z,59.78
2018-03-02T23:10:14.459Z,58.17
2018-03-02T23:12:42.048Z,60.28
2018-03-02T23:15:09.592Z,59.58
2018-03-02T23:17:37.149Z,60.55
2018-03-02T23:20:04.763Z,58.97
2018-03-02T23:22:33.088Z,61.37
2018-03-02T23:25:00.673Z,61.88
2018-03-02T23:27:28.285Z,61.25
2018-03-02T23:29:56.638Z,61.13
2018-03-02T23:32:24.221Z,60.28
2018-03-02T23:34:51.755Z,58.72
2018-03-02T23:37:19.359Z,59.03
2018-03-02T23:39:46.913Z,59.47
2018-03-02T23:42:14.459Z,57.97
2018-03-02T23:44:42.006Z,57.83
2018-03-02T23:47:09.616Z,60.38
2018-03-02T23:49:37.204Z,57.88
2018-03-02T23:52:05.535Z,62.50
2018-03-02T23:54:33.081Z,59.70
2018-03-02T23:57:00.644Z,63.10
2018-03-02T23:59:28.185Z,59.33
